Time;durP1;ratioP1;P1;durP2;ratioP2;P2;SDS_P1;SDS_P2;PMS_P1;PMS_P2;Temp;Humidity;BMP_temperature;BMP_pressure;BME280_temperature;BME280_humidity;BME280_pressure;Samples;Min_cycle;Max_cycle;Signal;HPM_P1;HPM_P2
2021/05/22 00:00:07;;;;;;;1999.90;999.90;;;;;;;9.76;100.00;99686.69;5052762;28;20421;-74
2021/05/22 00:02:33;;;;;;;1999.90;999.90;;;;;;;9.66;100.00;99670.44;5052836;28;20497;-74
2021/05/22 00:04:59;;;;;;;1974.00;999.90;;;;;;;9.57;100.00;99665.88;5055331;28;20441;-74
2021/05/22 00:07:25;;;;;;;1867.45;999.90;;;;;;;9.43;100.00;99654.47;5052447;28;20491;-74
2021/05/22 00:09:51;;;;;;;1999.90;999.90;;;;;;;9.33;100.00;99661.78;5052559;28;20957;-74
2021/05/22 00:12:18;;;;;;;1999.90;999.90;;;;;;;9.25;100.00;99662.47;5052545;28;20425;-74
2021/05/22 00:14:44;;;;;;;1977.15;999.90;;;;;;;9.20;100.00;99671.00;5052528;28;20413;-74
2021/05/22 00:17:10;;;;;;;1999.90;999.90;;;;;;;9.17;100.00;99662.34;5052611;28;20424;-74
2021/05/22 00:19:36;;;;;;;1999.90;999.90;;;;;;;9.10;100.00;99659.34;5052409;28;20499;-74
2021/05/22 00:22:02;;;;;;;1958.10;999.90;;;;;;;9.01;100.00;99652.91;5034695;28;20792;-74
2021/05/22 00:24:28;;;;;;;1999.90;999.90;;;;;;;9.02;100.00;99645.66;5034249;28;20421;-74
2021/05/22 00:26:54;;;;;;;1999.90;999.90;;;;;;;9.03;100.00;99650.06;5052554;28;20464;-74
2021/05/22 00:29:21;;;;;;;1999.90;999.90;;;;;;;9.00;100.00;99640.34;5052202;28;20515;-74
2021/05/22 00:31:47;;;;;;;1999.90;999.90;;;;;;;8.95;100.00;99645.38;5052236;28;20414;-74
2021/05/22 00:34:13;;;;;;;1959.60;999.90;;;;;;;8.92;100.00;99640.22;5052247;28;20919;-74
2021/05/22 00:36:39;;;;;;;1999.90;999.90;;;;;;;8.84;100.00;99646.31;5052124;28;20459;-74
2021/05/22 00:39:06;;;;;;;1984.03;999.90;;;;;;;8.69;100.00;99640.47;5052158;28;20839;-74
2021/05/22 00:41:32;;;;;;;1999.90;999.90;;;;;;;8.58;100.00;99631.59;5052319;28;20425;-74
2021/05/22 00:43:58;;;;;;;1864.00;999.90;;;;;;;8.46;100.00;99623.63;5051776;28;20409;-74
2021/05/22 00:46:24;;;;;;;1763.88;999.90;;;;;;;8.36;100.00;99622.69;5052242;28;20784;-74
2021/05/22 00:48:50;;;;;;;1665.28;999.90;;;;;;;8.31;100.00;99624.94;5051259;28;20429;-74
2021/05/22 00:51:16;;;;;;;1687.28;999.90;;;;;;;8.27;100.00;99618.09;5052255;28;20410;-74
2021/05/22 00:53:42;;;;;;;1724.97;999.90;;;;;;;8.21;100.00;99616.81;5033928;28;20472;-74
2021/05/22 00:56:08;;;;;;;1738.28;999.90;;;;;;;8.15;100.00;99611.94;5051201;28;20421;-74
2021/05/22 00:58:35;;;;;;;1648.00;999.90;;;;;;;8.06;100.00;99610.91;5051873;28;20416;-74
2021/05/22 01:01:04;;;;;;;1539.68;999.90;;;;;;;8.02;100.00;99609.47;5051619;28;20424;-74
2021/05/22 01:03:33;;;;;;;1766.80;999.90;;;;;;;7.95;100.00;99613.69;5051809;28;20440;-74
2021/05/22 01:06:08;;;;;;;1999.90;999.90;;;;;;;7.87;100.00;99606.28;5051382;28;20927;-74
2021/05/22 01:08:37;;;;;;;1813.68;999.90;;;;;;;7.80;100.00;99621.31;5051507;28;20436;-74
2021/05/22 01:11:21;;;;;;;1968.32;999.90;;;;;;;7.74;100.00;99621.81;5033900;28;20416;-74
2021/05/22 01:13:54;;;;;;;1950.63;999.90;;;;;;;7.66;100.00;99612.56;5051223;28;20425;-74
2021/05/22 01:16:21;;;;;;;1999.90;999.90;;;;;;;7.59;100.00;99621.31;5033943;28;20638;-74
2021/05/22 01:18:49;;;;;;;1757.03;999.90;;;;;;;7.54;100.00;99617.19;5051121;28;20417;-74
2021/05/22 01:21:16;;;;;;;1754.95;999.90;;;;;;;7.51;100.00;99612.03;5033687;28;20778;-74
2021/05/22 01:23:46;;;;;;;1829.90;999.90;;;;;;;7.53;100.00;99610.06;5051097;28;20409;-74
2021/05/22 01:26:13;;;;;;;1880.72;999.90;;;;;;;7.51;100.00;99616.59;5051166;28;20436;-73
2021/05/22 01:28:41;;;;;;;1800.45;999.90;;;;;;;7.47;100.00;99604.31;5051391;28;20786;-74
2021/05/22 01:31:08;;;;;;;1891.22;999.90;;;;;;;7.44;100.00;99605.47;5051086;28;20889;-74
2021/05/22 01:33:35;;;;;;;1842.60;999.90;;;;;;;7.42;100.00;99596.63;5051140;28;20425;-74
2021/05/22 01:36:01;;;;;;;1762.72;999.90;;;;;;;7.43;100.00;99603.75;5050830;28;20417;-74
2021/05/22 01:38:27;;;;;;;1767.90;999.90;;;;;;;7.40;100.00;99601.28;5051051;28;20425;-74
2021/05/22 01:40:54;;;;;;;1824.72;999.90;;;;;;;7.41;100.00;99599.47;5033457;28;20433;-74
2021/05/22 01:43:21;;;;;;;1772.60;999.90;;;;;;;7.37;100.00;99599.72;5032924;28;20421;-73
2021/05/22 01:46:08;;;;;;;1723.00;999.90;;;;;;;7.31;100.00;99599.38;5050820;28;20429;-74
2021/05/22 01:48:34;;;;;;;1856.07;999.90;;;;;;;7.27;100.00;99596.13;5050713;28;20422;-74
2021/05/22 01:51:04;;;;;;;1907.75;999.90;;;;;;;7.26;100.00;99596.25;5051013;28;20417;-74
2021/05/22 01:53:31;;;;;;;1935.50;999.90;;;;;;;7.24;100.00;99593.66;5050644;28;20417;-74
2021/05/22 01:55:58;;;;;;;1933.65;999.90;;;;;;;7.23;100.00;99593.78;5050744;28;20543;-73
2021/05/22 01:58:25;;;;;;;1987.90;999.90;;;;;;;7.21;100.00;99599.31;5050861;28;20923;-73
2021/05/22 02:00:51;;;;;;;1915.65;999.90;;;;;;;7.17;100.00;99597.88;5050145;28;20421;-74
2021/05/22 02:03:22;;;;;;;1999.90;999.90;;;;;;;7.12;100.00;99598.28;5050665;28;20444;-74
2021/05/22 02:05:52;;;;;;;1999.90;999.90;;;;;;;7.03;100.00;99591.81;5050288;28;20947;-74
2021/05/22 02:08:20;;;;;;;1999.90;999.90;;;;;;;6.97;100.00;99597.72;5049661;28;20546;-74
2021/05/22 02:10:47;;;;;;;1999.90;999.90;;;;;;;6.96;100.00;99589.75;5050619;28;20444;-74
2021/05/22 02:13:13;;;;;;;1999.90;999.90;;;;;;;6.95;100.00;99590.72;5032059;28;20889;-74
2021/05/22 02:15:45;;;;;;;1926.18;999.90;;;;;;;6.90;100.00;99588.44;5052966;28;20911;-74
2021/05/22 02:18:12;;;;;;;1999.90;999.90;;;;;;;6.86;100.00;99595.91;5032050;28;20536;-74
2021/05/22 02:20:38;;;;;;;1955.33;999.90;;;;;;;6.86;100.00;99586.97;5050626;28;20425;-73
2021/05/22 02:23:07;;;;;;;1999.90;999.90;;;;;;;6.83;100.00;99595.34;5050154;28;20428;-74
2021/05/22 02:25:33;;;;;;;1999.90;999.90;;;;;;;6.82;100.00;99590.91;5049987;28;20516;-74
2021/05/22 02:28:04;;;;;;;1999.90;999.90;;;;;;;6.84;100.00;99592.50;5050317;28;20417;-74
2021/05/22 02:30:30;;;;;;;1999.90;999.90;;;;;;;6.87;100.00;99583.31;5049900;28;20421;-74
2021/05/22 02:32:57;;;;;;;1999.90;999.90;;;;;;;6.94;100.00;99586.34;5050230;28;20421;-74
2021/05/22 02:35:26;;;;;;;1999.90;999.90;;;;;;;6.98;100.00;99590.50;5049712;28;20413;-73
2021/05/22 02:37:54;;;;;;;1924.45;999.90;;;;;;;7.02;100.00;99587.38;5031937;28;20449;-74
2021/05/22 02:40:22;;;;;;;1885.22;999.90;;;;;;;7.02;100.00;99583.84;5049922;28;20417;-74
2021/05/22 02:42:54;;;;;;;1999.90;999.90;;;;;;;7.03;100.00;99594.50;5049531;28;20904;-74
2021/05/22 02:45:22;;;;;;;1667.47;999.90;;;;;;;7.04;100.00;99592.66;5049748;28;20479;-74
2021/05/22 02:47:52;;;;;;;1664.53;999.90;;;;;;;7.06;100.00;99595.25;5049706;28;20425;-75
2021/05/22 02:50:20;;;;;;;1964.97;999.90;;;;;;;7.10;100.00;99594.84;5049707;28;20429;-74
2021/05/22 02:52:47;;;;;;;1847.32;999.90;;;;;;;7.10;100.00;99596.69;5049570;28;20428;-74
2021/05/22 02:55:13;;;;;;;1953.28;999.90;;;;;;;7.12;100.00;99587.47;5049247;28;20491;-74
2021/05/22 02:57:40;;;;;;;1776.00;999.90;;;;;;;7.17;100.00;99587.91;5049695;28;20447;-74
2021/05/22 03:00:08;;;;;;;1884.38;999.90;;;;;;;7.28;100.00;99592.44;5048997;28;20436;-74
2021/05/22 03:02:35;;;;;;;1999.90;999.90;;;;;;;7.38;100.00;99585.22;5049531;28;20425;-74
2021/05/22 03:05:02;;;;;;;1671.32;999.90;;;;;;;7.41;100.00;99592.22;5049168;28;20444;-73
2021/05/22 03:07:29;;;;;;;1999.90;999.90;;;;;;;7.40;100.00;99585.09;5031390;28;20433;-74
2021/05/22 03:09:55;;;;;;;1802.20;999.90;;;;;;;7.40;100.00;99587.78;5031042;28;20784;-74
2021/05/22 03:12:24;;;;;;;1990.07;999.90;;;;;;;7.37;100.00;99593.47;5049114;28;20456;-74
2021/05/22 03:14:51;;;;;;;1904.30;999.90;;;;;;;7.34;100.00;99594.59;5049262;28;20443;-74
2021/05/22 03:17:17;;;;;;;1904.57;999.90;;;;;;;7.29;100.00;99596.81;5049137;28;20425;-74
2021/05/22 03:19:43;;;;;;;1955.22;999.90;;;;;;;7.29;100.00;99601.38;5048589;28;20421;-74
2021/05/22 03:22:09;;;;;;;1591.15;999.90;;;;;;;7.28;100.00;99602.34;5049180;28;20421;-74
2021/05/22 03:24:35;;;;;;;1999.90;999.90;;;;;;;7.32;100.00;99596.59;5048714;28;20432;-75
2021/05/22 03:27:01;;;;;;;1806.13;999.90;;;;;;;7.40;100.00;99595.91;5031198;28;20425;-74
2021/05/22 03:29:27;;;;;;;1710.25;999.90;;;;;;;7.44;100.00;99591.09;5048955;28;20417;-75
2021/05/22 03:31:53;;;;;;;1858.00;999.90;;;;;;;7.45;100.00;99579.31;5048857;28;20463;-74
2021/05/22 03:34:19;;;;;;;1782.85;999.90;;;;;;;7.49;100.00;99580.75;5049293;28;20487;-74
2021/05/22 03:36:45;;;;;;;1999.90;999.90;;;;;;;7.51;100.00;99592.31;5030975;28;20424;-73
2021/05/22 03:39:12;;;;;;;1964.60;999.90;;;;;;;7.52;100.00;99592.16;5049252;28;20425;-74
2021/05/22 03:41:39;;;;;;;1726.18;999.90;;;;;;;7.53;100.00;99601.09;5048867;28;20543;-74
2021/05/22 03:44:05;;;;;;;1819.03;999.90;;;;;;;7.52;100.00;99596.69;5048362;28;20421;-74
2021/05/22 03:46:31;;;;;;;1866.57;999.90;;;;;;;7.58;100.00;99600.72;5048920;28;20453;-74
2021/05/22 03:48:57;;;;;;;1999.90;999.90;;;;;;;7.69;100.00;99601.47;5030543;28;20819;-74
2021/05/22 03:51:23;;;;;;;1889.18;999.90;;;;;;;7.88;100.00;99603.44;5048944;28;20455;-73
2021/05/22 03:53:49;;;;;;;1962.13;999.90;;;;;;;8.12;100.00;99604.09;5048465;28;20515;-74
2021/05/22 03:56:15;;;;;;;1999.90;999.90;;;;;;;8.35;100.00;99594.81;5048680;28;20451;-74
2021/05/22 03:58:42;;;;;;;1999.53;999.90;;;;;;;8.62;100.00;99595.16;5048816;28;20421;-74
2021/05/22 04:01:08;;;;;;;1923.13;999.90;;;;;;;8.87;100.00;99589.22;5048148;28;20493;-74
2021/05/22 04:03:34;;;;;;;1971.57;999.90;;;;;;;9.13;100.00;99591.38;5048896;28;20509;-74
2021/05/22 04:06:00;;;;;;;1999.90;999.90;;;;;;;9.35;100.00;99587.50;5048694;28;20472;-74
2021/05/22 04:08:26;;;;;;;1875.50;999.90;;;;;;;9.57;100.00;99590.00;5048633;28;20512;-74
2021/05/22 04:10:52;;;;;;;1999.90;999.90;;;;;;;9.72;100.00;99589.41;5048864;28;20872;-74
2021/05/22 04:13:18;;;;;;;1999.90;999.90;;;;;;;9.84;100.00;99597.38;5048277;28;20424;-74
2021/05/22 04:15:44;;;;;;;1999.90;999.90;;;;;;;9.92;100.00;99600.19;5049955;28;20436;-74
2021/05/22 04:18:11;;;;;;;1999.90;999.90;;;;;;;9.99;100.00;99597.75;5048066;28;20405;-74
2021/05/22 04:20:37;;;;;;;1999.90;999.90;;;;;;;10.07;100.00;99608.69;5016402;28;20421;-74
2021/05/22 04:23:04;;;;;;;1953.78;999.90;;;;;;;10.14;100.00;99612.53;5065177;28;20435;-74
2021/05/22 04:25:30;;;;;;;1999.90;999.90;;;;;;;10.21;100.00;99612.81;5068229;28;20427;-74
2021/05/22 04:27:56;;;;;;;1999.90;999.90;;;;;;;10.28;100.00;99615.78;5068693;28;20419;-74
2021/05/22 04:30:22;;;;;;;1999.90;999.90;;;;;;;10.39;100.00;99618.31;5068418;28;20451;-74
2021/05/22 04:32:49;;;;;;;1999.90;999.90;;;;;;;10.50;100.00;99620.81;5069946;28;20423;-74
2021/05/22 04:35:16;;;;;;;1999.90;999.90;;;;;;;10.56;100.00;99611.22;5052123;28;20409;-74
2021/05/22 04:37:42;;;;;;;1999.90;999.90;;;;;;;10.59;100.00;99612.78;5051659;28;20803;-74
2021/05/22 04:40:09;;;;;;;1999.90;999.90;;;;;;;10.67;100.00;99610.16;5034086;28;20429;-74
2021/05/22 04:42:35;;;;;;;1986.90;999.90;;;;;;;10.70;100.00;99610.72;5063075;28;20446;-74
2021/05/22 04:45:02;;;;;;;1999.90;999.90;;;;;;;10.79;100.00;99608.91;5071834;28;20426;-74
2021/05/22 04:47:28;;;;;;;1999.90;999.90;;;;;;;10.90;100.00;99602.41;5053938;28;20420;-74
2021/05/22 04:49:55;;;;;;;1999.90;999.90;;;;;;;11.03;100.00;99597.44;5064292;28;20431;-75
2021/05/22 04:52:22;;;;;;;1999.90;999.90;;;;;;;11.15;100.00;99592.63;5071853;28;20459;-76
2021/05/22 04:54:48;;;;;;;1999.90;999.90;;;;;;;11.25;100.00;99598.00;5061307;28;20451;-75
2021/05/22 04:57:14;;;;;;;1999.90;999.90;;;;;;;11.33;100.00;99589.03;5051829;28;20475;-75
2021/05/22 04:59:40;;;;;;;1999.90;999.90;;;;;;;11.37;100.00;99593.16;5035782;28;20939;-75
2021/05/22 05:02:06;;;;;;;1993.67;999.90;;;;;;;11.40;100.00;99601.00;5051479;28;20582;-74
2021/05/22 05:04:32;;;;;;;1999.90;999.90;;;;;;;11.40;100.00;99590.16;5054445;28;20420;-75
2021/05/22 05:06:59;;;;;;;1999.90;999.90;;;;;;;11.45;100.00;99598.69;5071128;28;20419;-74
2021/05/22 05:09:25;;;;;;;1999.90;999.90;;;;;;;11.55;100.00;99593.97;5071211;28;20662;-74
2021/05/22 05:11:51;;;;;;;1999.90;999.90;;;;;;;11.75;100.00;99596.50;5071757;28;20419;-74
2021/05/22 05:14:17;;;;;;;1999.90;999.90;;;;;;;12.00;100.00;99596.69;5067855;28;20424;-74
2021/05/22 05:16:43;;;;;;;1999.90;999.90;;;;;;;12.29;100.00;99596.31;5068336;28;20445;-74
2021/05/22 05:19:09;;;;;;;1999.90;999.90;;;;;;;12.45;100.00;99589.22;5061049;28;20724;-75
2021/05/22 05:21:35;;;;;;;1999.90;999.90;;;;;;;12.55;100.00;99585.34;5059943;28;20425;-75
2021/05/22 05:24:02;;;;;;;1999.90;999.90;;;;;;;12.61;100.00;99585.72;5047608;28;20433;-75
2021/05/22 05:26:28;;;;;;;1999.90;999.90;;;;;;;12.62;100.00;99581.97;5070873;28;20427;-76
2021/05/22 05:28:54;;;;;;;1999.90;999.90;;;;;;;12.65;100.00;99585.19;5052852;28;20454;-75
2021/05/22 05:31:20;;;;;;;1999.90;999.90;;;;;;;12.63;100.00;99586.41;5058628;28;20467;-76
2021/05/22 05:33:46;;;;;;;1999.90;999.90;;;;;;;12.61;100.00;99581.13;5041036;28;20415;-76
2021/05/22 05:36:11;;;;;;;1999.90;999.90;;;;;;;12.67;100.00;99575.00;5069538;28;20420;-75
2021/05/22 05:38:37;;;;;;;1999.90;999.90;;;;;;;12.83;100.00;99576.91;5057606;28;20427;-75
2021/05/22 05:41:04;;;;;;;1999.90;999.90;;;;;;;12.99;100.00;99575.25;5052969;28;20780;-75
2021/05/22 05:43:30;;;;;;;1999.90;999.90;;;;;;;13.10;100.00;99582.25;5050795;28;20425;-75
2021/05/22 05:45:56;;;;;;;1999.90;999.90;;;;;;;13.26;100.00;99584.13;5034616;28;20503;-75
2021/05/22 05:48:22;;;;;;;1999.90;999.90;;;;;;;13.43;100.00;99583.13;5051061;28;20692;-74
2021/05/22 05:50:48;;;;;;;1999.90;999.90;;;;;;;13.68;100.00;99583.97;5039268;28;20423;-75
2021/05/22 05:53:14;;;;;;;1999.90;999.90;;;;;;;13.81;100.00;99588.88;5062230;28;20732;-75
2021/05/22 05:55:40;;;;;;;1999.90;999.90;;;;;;;13.79;100.00;99599.13;5033909;28;20432;-76
2021/05/22 05:58:07;;;;;;;1999.90;999.90;;;;;;;13.63;100.00;99591.81;5037850;28;20482;-75
2021/05/22 06:00:33;;;;;;;1999.90;999.90;;;;;;;13.53;100.00;99593.84;5042152;28;20490;-75
2021/05/22 06:02:59;;;;;;;1999.90;999.90;;;;;;;13.55;100.00;99603.56;5055255;28;20651;-75
2021/05/22 06:05:25;;;;;;;1999.90;999.90;;;;;;;13.58;100.00;99596.09;5063241;28;20873;-75
2021/05/22 06:07:51;;;;;;;1999.90;999.90;;;;;;;13.58;100.00;99596.91;5065865;28;20432;-75
2021/05/22 06:10:17;;;;;;;1999.90;999.90;;;;;;;13.63;100.00;99601.84;5068263;28;20505;-75
2021/05/22 06:12:44;;;;;;;1999.90;999.90;;;;;;;13.45;100.00;99604.75;5059823;28;20516;-75
2021/05/22 06:15:22;;;;;;;1999.90;999.90;;;;;;;13.29;100.00;99613.75;5048579;28;20405;-74
2021/05/22 06:17:49;;;;;;;1999.90;999.90;;;;;;;13.04;100.00;99611.84;5059822;28;20427;-75
2021/05/22 06:20:15;;;;;;;1999.90;999.90;;;;;;;12.79;100.00;99621.84;5068485;28;20431;-74
2021/05/22 06:22:42;;;;;;;1999.90;999.90;;;;;;;12.52;100.00;99623.81;5069661;28;20428;-75
2021/05/22 06:25:09;;;;;;;1999.90;999.90;;;;;;;12.36;100.00;99623.75;5061860;28;20432;-75
2021/05/22 06:27:35;;;;;;;1999.90;999.90;;;;;;;12.14;100.00;99636.88;5046297;28;20445;-73
2021/05/22 06:30:01;;;;;;;1999.90;999.90;;;;;;;11.78;100.00;99633.41;5054962;28;20432;-73
2021/05/22 06:32:28;;;;;;;1999.90;999.90;;;;;;;11.51;100.00;99637.94;5051011;28;20428;-73
2021/05/22 06:34:54;;;;;;;1999.90;999.90;;;;;;;11.36;100.00;99633.06;5062329;28;20431;-73
2021/05/22 06:37:22;;;;;;;1999.90;999.90;;;;;;;11.27;100.00;99630.44;5051077;28;20479;-73
2021/05/22 06:39:48;;;;;;;1999.90;999.90;;;;;;;11.30;100.00;99643.72;5049566;28;20919;-74
2021/05/22 06:42:14;;;;;;;1999.90;999.90;;;;;;;11.37;100.00;99639.34;5049404;28;20418;-74
2021/05/22 06:44:44;;;;;;;1999.90;999.90;;;;;;;11.44;100.00;99640.44;5068822;28;20423;-74
2021/05/22 06:47:10;;;;;;;1999.90;999.90;;;;;;;11.41;100.00;99639.91;5069110;28;20439;-72
2021/05/22 06:49:37;;;;;;;1999.90;999.90;;;;;;;11.35;100.00;99625.91;5051272;28;20425;-73
2021/05/22 06:52:04;;;;;;;1999.90;999.90;;;;;;;11.38;100.00;99622.03;5051737;28;20806;-74
2021/05/22 06:54:33;;;;;;;1999.90;999.90;;;;;;;11.47;100.00;99634.69;5060943;28;20419;-72
2021/05/22 06:56:59;;;;;;;1999.90;999.90;;;;;;;11.54;100.00;99645.78;5047981;28;20423;-72
2021/05/22 06:59:25;;;;;;;1999.90;999.90;;;;;;;11.61;100.00;99638.72;5049208;28;20430;-73
2021/05/22 07:01:51;;;;;;;1999.90;999.90;;;;;;;11.72;100.00;99640.31;5031557;28;20425;-73
2021/05/22 07:04:17;;;;;;;1999.90;999.90;;;;;;;11.89;100.00;99634.00;5048852;28;20437;-72
2021/05/22 07:06:44;;;;;;;1999.90;999.90;;;;;;;12.21;100.00;99624.34;5047485;28;20506;-73
2021/05/22 07:09:10;;;;;;;1999.90;999.90;;;;;;;12.78;100.00;99628.31;5061395;28;20437;-74
2021/05/22 07:11:36;;;;;;;1999.90;999.90;;;;;;;13.32;100.00;99624.31;5049015;28;20442;-74
2021/05/22 07:14:02;;;;;;;1999.90;999.90;;;;;;;13.60;100.00;99624.00;5049245;28;20421;-72
2021/05/22 07:16:28;;;;;;;1999.90;999.90;;;;;;;14.09;100.00;99620.38;5049212;28;20424;-72
2021/05/22 07:18:54;;;;;;;1999.90;999.90;;;;;;;14.67;100.00;99621.00;5048954;28;20796;-74
2021/05/22 07:21:20;;;;;;;1999.90;999.90;;;;;;;15.17;100.00;99625.16;5049325;28;20413;-73
2021/05/22 07:23:47;;;;;;;1999.90;999.90;;;;;;;15.61;100.00;99620.06;5048899;28;20885;-72
2021/05/22 07:26:13;;;;;;;1999.90;999.90;;;;;;;16.05;100.00;99608.38;5049216;28;20469;-73
2021/05/22 07:28:39;;;;;;;1999.90;999.90;;;;;;;16.13;100.00;99608.28;5048823;28;20413;-74
2021/05/22 07:31:05;;;;;;;1999.90;999.90;;;;;;;16.36;100.00;99604.59;5049055;28;20429;-74
2021/05/22 07:33:33;;;;;;;1999.90;999.90;;;;;;;16.43;100.00;99608.25;5030910;28;20563;-74
2021/05/22 07:35:59;;;;;;;1999.90;999.90;;;;;;;16.31;100.00;99612.53;5048137;28;20424;-73
2021/05/22 07:38:25;;;;;;;1999.90;999.90;;;;;;;16.06;100.00;99621.00;5049202;28;20792;-73
2021/05/22 07:40:52;;;;;;;1999.90;999.90;;;;;;;15.74;100.00;99607.44;5031204;28;20425;-73
2021/05/22 07:43:19;;;;;;;1999.90;999.90;;;;;;;15.41;100.00;99626.03;5048786;28;20483;-73
2021/05/22 07:45:45;;;;;;;1999.90;999.90;;;;;;;15.54;100.00;99612.59;5031157;28;20456;-73
2021/05/22 07:48:11;;;;;;;1999.90;999.90;;;;;;;16.18;100.00;99616.78;5048886;28;20475;-73
2021/05/22 07:50:37;;;;;;;1999.90;999.90;;;;;;;16.04;100.00;99623.09;5048910;28;20417;-73
2021/05/22 07:53:04;;;;;;;1999.90;999.90;;;;;;;15.90;100.00;99625.63;5030506;28;20424;-73
2021/05/22 07:55:30;;;;;;;1999.90;999.90;;;;;;;16.50;100.00;99620.19;5048871;28;20417;-73
2021/05/22 07:57:56;;;;;;;1999.90;999.90;;;;;;;16.06;100.00;99619.13;5048720;28;20432;-72
2021/05/22 08:00:23;;;;;;;1999.90;999.90;;;;;;;15.39;100.00;99628.06;5048947;28;20414;-73
2021/05/22 08:02:49;;;;;;;1999.90;999.90;;;;;;;15.01;100.00;99630.75;5048658;28;20417;-73
2021/05/22 08:05:15;;;;;;;1999.90;999.90;;;;;;;15.33;100.00;99617.88;5030483;28;20475;-72
2021/05/22 08:07:42;;;;;;;1999.90;999.90;;;;;;;15.50;100.00;99619.47;5052801;28;20528;-73
2021/05/22 08:10:09;;;;;;;1999.90;999.90;;;;;;;15.76;100.00;99618.19;5052236;28;20862;-73
2021/05/22 08:12:35;;;;;;;1999.90;999.90;;;;;;;16.51;100.00;99621.84;5052855;28;20425;-73
2021/05/22 08:15:05;;;;;;;1999.90;999.90;;;;;;;17.09;100.00;99618.38;5052545;28;20436;-72
2021/05/22 08:17:31;;;;;;;1999.90;999.90;;;;;;;17.56;100.00;99610.63;5052511;28;20417;-73
2021/05/22 08:19:57;;;;;;;1999.90;999.90;;;;;;;17.95;100.00;99614.75;5052465;28;20417;-73
2021/05/22 08:22:23;;;;;;;1999.90;999.90;;;;;;;18.31;100.00;99610.13;5034475;28;20935;-73
2021/05/22 08:24:49;;;;;;;1999.90;999.90;;;;;;;17.91;100.00;99617.00;5052311;28;20927;-73
2021/05/22 08:27:17;;;;;;;1999.90;999.90;;;;;;;16.93;100.00;99615.84;5054364;28;20490;-73
2021/05/22 08:29:43;;;;;;;1999.90;999.90;;;;;;;16.78;100.00;99624.94;5034359;28;20938;-73
2021/05/22 08:32:10;;;;;;;1999.90;999.90;;;;;;;17.13;100.00;99608.72;5052377;28;20516;-73
2021/05/22 08:34:39;;;;;;;1999.90;999.90;;;;;;;16.90;100.00;99619.84;5051719;28;20478;-73
2021/05/22 08:37:05;;;;;;;1999.90;999.90;;;;;;;17.96;100.00;99616.44;5051989;28;20479;-73
2021/05/22 08:39:31;;;;;;;1999.90;999.90;;;;;;;18.52;95.84;99622.91;5052058;28;20436;-73
2021/05/22 08:41:57;;;;;;;1999.90;999.90;;;;;;;18.53;94.47;99611.72;5052179;28;20788;-73
2021/05/22 08:44:23;;;;;;;1999.90;999.90;;;;;;;17.46;94.64;99613.66;5051622;28;20516;-73
2021/05/22 08:46:49;;;;;;;1999.90;999.90;;;;;;;16.58;100.00;99610.97;5051871;28;20429;-73
2021/05/22 08:49:17;;;;;;;1999.90;999.90;;;;;;;16.50;99.21;99616.56;5051833;28;20425;-73
2021/05/22 08:51:43;;;;;;;1999.90;999.90;;;;;;;17.29;96.90;99629.56;5051857;28;20417;-73
2021/05/22 08:54:09;;;;;;;1999.90;999.90;;;;;;;17.97;89.93;99609.06;5051714;28;20873;-73
2021/05/22 08:56:35;;;;;;;;;;;;;;;17.98;81.13;99605.25;5053445;28;20428;-73
2021/05/22 08:59:02;;;;;;;1999.90;999.90;;;;;;;18.60;83.86;99606.28;5052546;28;20442;-73
2021/05/22 09:01:28;;;;;;;1999.90;999.90;;;;;;;19.26;81.56;99601.22;5033625;28;20753;-73
2021/05/22 09:03:55;;;;;;;1999.90;999.90;;;;;;;19.70;75.67;99610.78;5033666;28;20517;-72
2021/05/22 09:06:22;;;;;;;1999.90;999.90;;;;;;;20.34;73.94;99586.38;5051794;28;20491;-73
2021/05/22 09:09:04;;;;;;;1999.90;999.90;;;;;;;20.67;66.18;99591.75;5051718;28;20424;-72
2021/05/22 09:11:46;;;;;;;1999.90;999.90;;;;;;;20.91;58.73;99586.56;5051832;28;20421;-73
2021/05/22 09:14:39;;;;;;;1999.90;999.90;;;;;;;20.76;52.58;99586.84;5033711;28;20908;-72
2021/05/22 09:17:06;;;;;;;1999.90;999.90;;;;;;;20.36;51.22;99595.25;5051081;28;20421;-73
2021/05/22 09:19:32;;;;;;;1999.90;999.90;;;;;;;20.63;53.79;99589.63;5051179;28;20421;-73
2021/05/22 09:22:11;;;;;;;1999.90;999.90;;;;;;;20.14;54.08;99586.41;5051451;28;20421;-73
2021/05/22 09:24:54;;;;;;;1999.90;999.90;;;;;;;20.82;53.09;99593.41;5051497;28;20414;-72
2021/05/22 09:27:20;;;;;;;1999.90;999.90;;;;;;;20.96;52.34;99610.72;5051194;28;20454;-72
2021/05/22 09:29:46;;;;;;;;;;;;;;;19.80;49.63;99594.69;5052408;28;20981;-73
2021/05/22 09:32:13;;;;;;;;;;;;;;;18.98;56.22;99594.78;5019064;28;19971;-73
2021/05/22 09:34:39;;;;;;;;;;;;;;;17.89;56.63;99582.56;5035119;28;20330;-73
2021/05/22 09:37:10;;;;;;;;;;;;;;;18.17;59.22;99588.09;5052672;28;19921;-72
2021/05/22 09:39:45;;;;;;;1999.90;999.90;;;;;;;18.34;58.18;99604.22;5051186;28;20449;-72
2021/05/22 09:42:11;;;;;;;1999.90;713.70;;;;;;;18.09;61.19;99590.13;5051422;28;20428;-73
2021/05/22 09:44:38;;;;;;;1999.90;905.17;;;;;;;18.40;62.13;99581.44;5051239;28;20550;-73
2021/05/22 09:47:04;;;;;;;1999.90;999.90;;;;;;;18.50;62.82;99590.13;5050918;28;20425;-73
2021/05/22 09:49:32;;;;;;;1999.90;729.45;;;;;;;17.76;62.54;99580.59;5033543;28;20920;-72
2021/05/22 09:52:00;;;;;;;1999.90;999.90;;;;;;;17.31;64.58;99591.81;5033072;28;20897;-73
2021/05/22 09:54:40;;;;;;;1999.90;999.90;;;;;;;17.76;62.05;99580.59;5050632;28;20544;-73
2021/05/22 09:57:06;;;;;;;;;;;;;;;17.93;59.98;99585.78;5034260;28;20505;-73
2021/05/22 09:59:32;;;;;;;;;;;;;;;17.89;61.55;99583.44;5052714;28;19956;-73
2021/05/22 10:01:59;;;;;;;;;;;;;;;17.77;58.40;99585.03;5035132;28;19927;-73
2021/05/22 10:04:25;;;;;;;;;;;;;;;17.12;60.76;99585.09;5052148;28;19928;-73
2021/05/22 10:06:52;;;;;;;1999.90;999.90;;;;;;;17.82;63.53;99587.16;5033489;28;20521;-73
2021/05/22 10:09:20;;;;;;;1999.90;999.90;;;;;;;18.97;59.16;99601.34;5050534;28;20409;-73
2021/05/22 10:12:03;;;;;;;1999.90;999.90;;;;;;;19.53;52.39;99575.41;5033112;28;20421;-73
2021/05/22 10:14:31;;;;;;;1999.90;999.90;;;;;;;19.50;51.23;99583.25;5050087;28;20992;-73
2021/05/22 10:16:58;;;;;;;1999.90;999.90;;;;;;;18.79;52.94;99582.66;5050569;28;20414;-73
2021/05/22 10:19:26;;;;;;;1999.90;999.90;;;;;;;18.26;55.29;99585.16;5050566;28;20417;-73
2021/05/22 10:21:52;;;;;;;1999.90;999.90;;;;;;;18.61;54.80;99576.88;5050464;28;20429;-73
2021/05/22 10:24:19;;;;;;;1999.90;999.90;;;;;;;18.67;56.78;99587.06;5050360;28;20819;-73
2021/05/22 10:26:45;;;;;;;1999.90;999.90;;;;;;;18.31;54.59;99589.00;5050046;28;20518;-73
2021/05/22 10:29:12;;;;;;;1999.90;999.90;;;;;;;18.05;55.45;99590.53;5062938;28;20934;-73
2021/05/22 10:31:39;;;;;;;1999.90;999.90;;;;;;;17.80;58.14;99590.13;5065036;28;20415;-73
2021/05/22 10:34:10;;;;;;;1999.90;999.90;;;;;;;17.67;59.84;99592.75;5049796;28;20417;-73
2021/05/22 10:36:48;;;;;;;1999.90;999.90;;;;;;;17.35;60.44;99600.50;5056539;28;20419;-70
2021/05/22 10:39:33;;;;;;;1999.90;999.90;;;;;;;17.16;60.56;99619.28;5054613;28;20451;-70
2021/05/22 10:41:59;;;;;;;1999.90;999.90;;;;;;;16.81;59.32;99621.81;5050193;28;20424;-70
2021/05/22 10:44:32;;;;;;;1999.90;999.90;;;;;;;16.01;66.93;99631.69;5050033;28;20483;-70
2021/05/22 10:47:06;;;;;;;1999.90;775.40;;;;;;;14.71;88.90;99652.41;5050687;28;20437;-70
2021/05/22 10:49:51;;;;;;;1999.90;999.90;;;;;;;13.65;100.00;99676.16;5050696;28;20876;-70
2021/05/22 10:52:18;;;;;;;;;;;;;;;12.61;100.00;99695.44;5057569;28;20415;-69
2021/05/22 10:54:57;;;;;;;;;;;;;;;11.56;100.00;99696.25;5071629;28;19974;-70